Time;durP1;ratioP1;P1;durP2;ratioP2;P2;SDS_P1;SDS_P2;PMS_P1;PMS_P2;Temp;Humidity;BMP_temperature;BMP_pressure;BME280_temperature;BME280_humidity;BME280_pressure;Samples;Min_cycle;Max_cycle;Signal;HPM_P1;HPM_P2
2023/03/29 00:00:33;;;;;;;0.97;0.97;;;17.40;61.50;;;;;;5104503;27;43422;-77
2023/03/29 00:03:02;;;;;;;0.90;0.90;;;17.50;61.20;;;;;;5084761;27;43587;-75
2023/03/29 00:05:34;;;;;;;0.90;0.90;;;17.60;60.90;;;;;;5087726;27;43610;-76
2023/03/29 00:08:02;;;;;;;0.90;0.90;;;17.60;60.50;;;;;;5088273;27;44318;-78
2023/03/29 00:10:31;;;;;;;0.80;0.80;;;17.60;60.60;;;;;;5106989;27;43369;-75
2023/03/29 00:12:59;;;;;;;1.10;1.10;;;17.60;60.80;;;;;;5107184;27;43451;-78
2023/03/29 00:15:28;;;;;;;0.90;0.90;;;17.60;60.90;;;;;;5106699;27;43486;-78
2023/03/29 00:17:56;;;;;;;0.90;0.90;;;17.60;60.80;;;;;;5081564;27;43869;-78
2023/03/29 00:20:24;;;;;;;0.70;0.70;;;17.60;61.00;;;;;;5072424;28;43385;-78
2023/03/29 00:22:57;;;;;;;0.90;0.90;;;17.50;61.10;;;;;;5103964;27;43398;-75
2023/03/29 00:25:25;;;;;;;0.90;0.90;;;17.50;61.10;;;;;;5107847;27;43433;-77
2023/03/29 00:27:53;;;;;;;0.90;0.90;;;17.50;61.20;;;;;;5079934;27;45724;-77
2023/03/29 00:30:21;;;;;;;1.00;1.00;;;17.50;61.30;;;;;;5105309;27;43827;-76
2023/03/29 00:32:50;;;;;;;1.00;1.00;;;17.40;61.10;;;;;;5077415;27;43413;-75
2023/03/29 00:35:18;;;;;;;0.70;0.70;;;17.40;61.30;;;;;;5101767;27;43558;-76
2023/03/29 00:37:49;;;;;;;0.80;0.80;;;17.50;61.40;;;;;;5097941;27;43606;-77
2023/03/29 00:40:23;;;;;;;0.80;0.80;;;17.40;61.40;;;;;;5086327;27;44774;-78
2023/03/29 00:42:51;;;;;;;0.90;0.90;;;17.40;61.40;;;;;;5106960;27;43441;-77
2023/03/29 00:45:20;;;;;;;0.80;0.80;;;17.40;61.40;;;;;;5107624;27;43385;-78
2023/03/29 00:47:49;;;;;;;0.90;0.90;;;17.50;61.40;;;;;;5077848;27;46008;-75
2023/03/29 00:50:21;;;;;;;0.70;0.70;;;17.50;61.00;;;;;;5102616;27;43686;-76
2023/03/29 00:52:51;;;;;;;0.80;0.80;;;17.60;60.70;;;;;;5107094;27;43525;-75
2023/03/29 00:55:22;;;;;;;0.70;0.70;;;17.60;60.80;;;;;;5075501;27;43396;-76
2023/03/29 00:57:52;;;;;;;0.83;0.83;;;17.60;60.90;;;;;;5081826;27;45746;-76
2023/03/29 01:00:21;;;;;;;0.90;0.90;;;17.60;61.10;;;;;;5107253;27;43475;-76
2023/03/29 01:02:52;;;;;;;0.80;0.80;;;17.60;61.00;;;;;;5101725;27;43937;-77
2023/03/29 01:05:23;;;;;;;0.80;0.80;;;17.60;60.90;;;;;;5087545;27;43581;-78
2023/03/29 01:07:56;;;;;;;0.80;0.80;;;17.50;60.90;;;;;;5090378;27;43797;-77
2023/03/29 01:10:29;;;;;;;0.80;0.80;;;17.50;61.20;;;;;;5086958;27;44352;-76
2023/03/29 01:13:00;;;;;;;0.80;0.80;;;17.50;61.20;;;;;;5083115;27;43342;-76
2023/03/29 01:15:28;;;;;;;0.67;0.67;;;17.50;61.30;;;;;;5076127;27;43388;-74
2023/03/29 01:17:57;;;;;;;0.80;0.80;;;17.50;61.30;;;;;;5078418;28;44031;-78
2023/03/29 01:20:29;;;;;;;0.90;0.90;;;17.60;61.10;;;;;;5083817;27;44841;-77
2023/03/29 01:23:14;;;;;;;0.93;0.93;;;17.60;60.70;;;;;;5087665;27;43949;-74
2023/03/29 01:25:47;;;;;;;0.83;0.83;;;17.60;60.90;;;;;;5082875;27;43470;-75
2023/03/29 01:28:17;;;;;;;0.70;0.70;;;17.60;61.00;;;;;;5093767;27;43747;-77
2023/03/29 01:30:48;;;;;;;0.90;0.90;;;17.50;61.10;;;;;;5105035;27;43807;-74
2023/03/29 01:33:20;;;;;;;0.90;0.90;;;17.50;61.00;;;;;;5096464;27;43338;-75
2023/03/29 01:35:48;;;;;;;0.87;0.87;;;17.50;60.80;;;;;;5087764;27;43441;-77
2023/03/29 01:38:19;;;;;;;0.70;0.70;;;17.50;61.00;;;;;;5079925;27;45699;-76
2023/03/29 01:40:47;;;;;;;0.80;0.80;;;17.50;61.20;;;;;;5082812;27;44382;-77
2023/03/29 01:43:21;;;;;;;0.90;0.90;;;17.50;61.20;;;;;;5083675;27;43419;-77
2023/03/29 01:45:51;;;;;;;0.80;0.80;;;17.50;61.40;;;;;;5081230;27;43921;-76
2023/03/29 01:48:20;;;;;;;0.60;0.60;;;17.40;61.20;;;;;;5086778;27;45386;-76
2023/03/29 01:50:50;;;;;;;0.80;0.80;;;17.50;61.30;;;;;;5106378;27;43359;-77
2023/03/29 01:53:21;;;;;;;0.80;0.80;;;17.50;61.40;;;;;;5080286;27;43469;-76
2023/03/29 01:55:50;;;;;;;0.70;0.70;;;17.40;61.30;;;;;;5082251;27;43439;-77
2023/03/29 01:58:20;;;;;;;0.90;0.90;;;17.40;61.40;;;;;;5084089;27;46058;-77
2023/03/29 02:00:48;;;;;;;1.00;1.00;;;17.40;61.50;;;;;;5081053;27;44653;-76
2023/03/29 02:03:16;;;;;;;0.80;0.80;;;17.40;61.40;;;;;;5087313;27;43400;-77
2023/03/29 02:05:44;;;;;;;0.77;0.77;;;17.50;61.10;;;;;;5096940;27;43416;-75
2023/03/29 02:08:13;;;;;;;1.20;1.20;;;17.60;60.80;;;;;;5103986;27;43878;-76
2023/03/29 02:10:41;;;;;;;0.80;0.80;;;17.60;60.60;;;;;;5084480;27;43389;-76
2023/03/29 02:13:11;;;;;;;0.80;0.80;;;17.60;60.80;;;;;;5092965;27;43450;-76
2023/03/29 02:15:40;;;;;;;0.60;0.60;;;17.60;60.90;;;;;;5086144;27;43538;-76
2023/03/29 02:18:08;;;;;;;0.90;0.90;;;17.60;61.10;;;;;;5089208;27;45844;-76
2023/03/29 02:20:39;;;;;;;0.77;0.77;;;17.50;60.80;;;;;;5096414;27;43454;-75
2023/03/29 02:23:09;;;;;;;0.80;0.80;;;17.50;61.00;;;;;;5099543;27;43437;-76
2023/03/29 02:25:37;;;;;;;0.87;0.87;;;17.50;61.10;;;;;;5073515;28;43529;-76
2023/03/29 02:28:05;;;;;;;1.00;1.00;;;17.50;61.20;;;;;;5077262;28;45752;-76
2023/03/29 02:30:35;;;;;;;0.80;0.80;;;17.50;61.30;;;;;;5073785;28;44430;-77
2023/03/29 02:33:08;;;;;;;0.90;0.90;;;17.40;61.30;;;;;;5088642;27;43445;-76
2023/03/29 02:35:39;;;;;;;1.00;1.00;;;17.50;61.20;;;;;;5072084;27;43530;-75
2023/03/29 02:38:09;;;;;;;0.60;0.60;;;17.60;60.90;;;;;;5088251;27;45738;-77
2023/03/29 02:40:37;;;;;;;0.80;0.80;;;17.60;60.60;;;;;;5089317;27;44150;-76
2023/03/29 02:43:06;;;;;;;0.63;0.63;;;17.60;60.50;;;;;;5090100;27;43415;-76
2023/03/29 02:45:36;;;;;;;0.93;0.93;;;17.60;60.80;;;;;;5090127;27;43448;-76
2023/03/29 02:48:06;;;;;;;0.80;0.80;;;17.60;60.90;;;;;;5089673;27;45866;-77
2023/03/29 02:50:36;;;;;;;0.90;0.90;;;17.60;60.90;;;;;;5090208;27;44875;-76
2023/03/29 02:53:05;;;;;;;0.70;0.70;;;17.60;60.90;;;;;;5082344;27;43909;-77
2023/03/29 02:55:35;;;;;;;0.70;0.70;;;17.60;61.10;;;;;;5090443;27;43514;-77
2023/03/29 02:58:06;;;;;;;0.83;0.83;;;17.50;61.00;;;;;;5104137;27;43602;-75
2023/03/29 03:00:37;;;;;;;0.80;0.80;;;17.50;61.20;;;;;;5085450;27;44318;-75
2023/03/29 03:03:06;;;;;;;0.90;0.90;;;17.40;61.20;;;;;;5086243;27;43547;-77
2023/03/29 03:05:35;;;;;;;0.80;0.80;;;17.40;61.20;;;;;;5092203;27;43417;-76
2023/03/29 03:08:03;;;;;;;0.60;0.60;;;17.50;61.20;;;;;;5079378;27;43946;-77
2023/03/29 03:10:32;;;;;;;0.90;0.90;;;17.50;61.30;;;;;;5108102;27;43416;-77
2023/03/29 03:13:00;;;;;;;0.70;0.70;;;17.40;61.30;;;;;;5089316;27;43309;-77
2023/03/29 03:15:31;;;;;;;0.80;0.80;;;17.40;61.40;;;;;;5089815;27;43484;-77
2023/03/29 03:17:59;;;;;;;0.83;0.83;;;17.40;61.50;;;;;;5087890;27;46112;-77
2023/03/29 03:20:41;;;;;;;0.87;0.87;;;17.40;61.50;;;;;;5083103;27;44797;-76
2023/03/29 03:23:09;;;;;;;0.60;0.60;;;17.50;61.20;;;;;;5087773;27;43753;-77
2023/03/29 03:25:37;;;;;;;0.80;0.80;;;17.60;60.90;;;;;;5089801;27;43942;-76
2023/03/29 03:28:05;;;;;;;0.80;0.80;;;17.60;60.60;;;;;;5086615;27;44741;-76
2023/03/29 03:30:33;;;;;;;0.90;0.90;;;17.60;60.80;;;;;;5088827;27;44631;-76
2023/03/29 03:33:25;;;;;;;0.83;0.83;;;17.60;61.00;;;;;;5057851;27;43527;-76
2023/03/29 03:36:15;;;;;;;0.80;0.80;;;17.50;60.90;;;;;;5099861;27;43530;-77
2023/03/29 03:38:45;;;;;;;0.87;0.87;;;17.50;60.70;;;;;;5082363;27;45343;-77
2023/03/29 03:41:13;;;;;;;0.80;0.80;;;17.50;60.80;;;;;;5088812;27;44709;-76
2023/03/29 03:43:42;;;;;;;0.93;0.93;;;17.50;60.90;;;;;;5088751;27;43934;-76
2023/03/29 03:46:11;;;;;;;1.50;0.80;;;17.40;61.00;;;;;;5089267;27;43927;-77
2023/03/29 03:48:40;;;;;;;0.80;0.80;;;17.40;61.20;;;;;;5085574;27;43965;-76
2023/03/29 03:51:10;;;;;;;0.80;0.80;;;17.40;62.00;;;;;;5088559;27;44957;-75
2023/03/29 03:53:41;;;;;;;1.00;1.00;;;17.40;61.00;;;;;;5076105;27;43425;-76
2023/03/29 03:56:12;;;;;;;1.00;1.00;;;17.40;61.10;;;;;;5094060;27;43389;-75
2023/03/29 03:58:58;;;;;;;0.80;0.80;;;17.40;61.30;;;;;;5097538;27;43834;-75
2023/03/29 04:01:29;;;;;;;0.90;0.90;;;17.40;61.30;;;;;;5080418;27;43464;-75
2023/03/29 04:04:07;;;;;;;1.00;1.00;;;17.40;61.40;;;;;;5071424;28;43909;-76
2023/03/29 04:06:35;;;;;;;1.37;0.90;;;17.40;61.50;;;;;;5076538;27;43516;-77
2023/03/29 04:09:23;;;;;;;0.93;0.93;;;17.40;61.30;;;;;;5102961;27;43530;-77
2023/03/29 04:12:05;;;;;;;0.90;0.90;;;17.50;60.90;;;;;;5080427;27;43360;-77
2023/03/29 04:14:34;;;;;;;1.00;0.90;;;17.60;60.60;;;;;;5070346;27;43479;-77
2023/03/29 04:17:08;;;;;;;1.00;1.00;;;17.60;60.70;;;;;;5079999;27;43967;-75
2023/03/29 04:19:57;;;;;;;0.87;0.87;;;17.60;60.90;;;;;;5086310;27;45383;-76
2023/03/29 04:22:28;;;;;;;1.20;1.20;;;17.50;60.90;;;;;;5081593;27;44439;-77
2023/03/29 04:24:58;;;;;;;1.00;1.00;;;17.50;60.80;;;;;;5082289;27;43412;-76
2023/03/29 04:27:46;;;;;;;1.00;1.00;;;17.50;61.00;;;;;;5100917;27;43412;-76
2023/03/29 04:30:24;;;;;;;1.40;1.40;;;17.50;61.10;;;;;;5088709;27;43833;-75
2023/03/29 04:33:16;;;;;;;1.60;0.87;;;17.50;61.20;;;;;;5086972;27;43905;-75
2023/03/29 04:35:48;;;;;;;1.53;1.10;;;17.40;61.20;;;;;;5085216;27;43813;-75
2023/03/29 04:38:21;;;;;;;1.10;1.10;;;17.40;61.10;;;;;;5076568;27;43424;-78
2023/03/29 04:40:53;;;;;;;1.10;1.10;;;17.40;61.00;;;;;;5086309;27;45717;-77
2023/03/29 04:43:45;;;;;;;1.00;1.00;;;17.40;61.30;;;;;;5083180;27;43479;-76
2023/03/29 04:46:27;;;;;;;1.20;1.20;;;17.40;61.40;;;;;;5075943;27;43547;-78
2023/03/29 04:49:04;;;;;;;1.20;1.20;;;17.40;61.50;;;;;;5088841;27;43450;-78
2023/03/29 04:51:39;;;;;;;1.23;1.20;;;17.30;61.50;;;;;;5079822;27;43844;-76
2023/03/29 04:54:08;;;;;;;1.00;1.00;;;17.40;61.30;;;;;;5085371;27;43360;-77
2023/03/29 04:57:00;;;;;;;1.17;1.10;;;17.50;61.00;;;;;;5091386;27;43410;-77
2023/03/29 05:00:00;;;;;;;1.20;1.10;;;17.60;60.60;;;;;;5064752;27;43416;-76
2023/03/29 05:02:51;;;;;;;1.20;1.20;;;17.60;60.60;;;;;;5101968;27;43777;-78
2023/03/29 05:05:19;;;;;;;1.20;1.20;;;17.60;60.90;;;;;;5083457;27;43932;-76
2023/03/29 05:07:49;;;;;;;1.00;1.00;;;17.60;60.90;;;;;;5088156;27;43403;-76
2023/03/29 05:10:23;;;;;;;1.10;1.10;;;17.50;60.60;;;;;;5075072;27;43569;-78
2023/03/29 05:12:53;;;;;;;1.10;1.10;;;17.50;60.80;;;;;;5079927;27;44174;-76
2023/03/29 05:15:22;;;;;;;1.00;1.00;;;17.50;61.00;;;;;;5074690;27;44749;-76
2023/03/29 05:17:51;;;;;;;1.30;1.30;;;17.50;61.10;;;;;;5070995;27;44998;-74
2023/03/29 05:20:19;;;;;;;1.00;1.00;;;17.50;61.20;;;;;;5083304;27;43426;-75
2023/03/29 05:22:47;;;;;;;1.30;1.30;;;17.40;61.10;;;;;;5087368;27;45271;-77
2023/03/29 05:25:39;;;;;;;1.10;1.10;;;17.40;61.00;;;;;;5105847;27;43399;-76
2023/03/29 05:28:09;;;;;;;1.00;1.00;;;17.40;61.20;;;;;;5073028;28;43491;-77
2023/03/29 05:30:37;;;;;;;1.20;1.20;;;17.40;61.20;;;;;;5081109;27;43642;-75
2023/03/29 05:33:13;;;;;;;1.10;1.10;;;17.40;61.40;;;;;;5060606;27;43929;-77
2023/03/29 05:35:42;;;;;;;1.00;1.00;;;17.40;61.30;;;;;;5083541;27;43521;-74
2023/03/29 05:38:10;;;;;;;1.20;1.20;;;17.40;61.30;;;;;;5087963;27;44036;-77
2023/03/29 05:40:40;;;;;;;1.27;1.27;;;17.40;61.10;;;;;;5087854;27;43399;-75
2023/03/29 05:43:29;;;;;;;1.03;1.03;;;17.40;61.20;;;;;;5099380;27;44086;-77
2023/03/29 05:45:58;;;;;;;1.03;1.03;;;17.40;61.30;;;;;;5081018;27;43403;-76
2023/03/29 05:48:27;;;;;;;1.00;1.00;;;17.40;61.40;;;;;;5085635;27;43422;-76
2023/03/29 05:50:56;;;;;;;1.20;1.20;;;17.40;61.40;;;;;;5089098;27;43392;-75
2023/03/29 05:53:25;;;;;;;1.20;1.20;;;17.40;61.40;;;;;;5085517;27;45602;-75
2023/03/29 05:55:53;;;;;;;1.20;1.20;;;17.40;61.20;;;;;;5084598;27;44851;-70
2023/03/29 05:58:25;;;;;;;1.30;1.30;;;17.50;60.90;;;;;;5089926;27;43473;-72
2023/03/29 06:00:55;;;;;;;1.20;1.20;;;17.60;60.60;;;;;;5109923;27;43463;-78
2023/03/29 06:03:44;;;;;;;1.30;1.30;;;17.70;60.40;;;;;;5094947;27;43570;-76
2023/03/29 06:06:15;;;;;;;1.30;1.30;;;17.60;60.50;;;;;;5078127;27;45460;-76
2023/03/29 06:08:43;;;;;;;1.17;1.17;;;17.60;60.60;;;;;;5101160;27;43981;-76
2023/03/29 06:11:23;;;;;;;1.27;1.27;;;17.60;60.50;;;;;;5088752;27;43506;-77
2023/03/29 06:14:12;;;;;;;1.10;1.10;;;17.60;60.60;;;;;;5083960;27;43769;-77
2023/03/29 06:16:47;;;;;;;1.20;1.20;;;17.60;60.80;;;;;;5076135;27;43372;-76
2023/03/29 06:19:16;;;;;;;1.37;1.37;;;17.50;60.90;;;;;;5091146;27;43450;-76
2023/03/29 06:21:44;;;;;;;1.20;1.20;;;17.50;61.10;;;;;;5090636;27;43574;-77
2023/03/29 06:24:17;;;;;;;1.33;1.30;;;17.40;61.10;;;;;;5088035;27;43884;-74
2023/03/29 06:26:51;;;;;;;1.13;1.13;;;17.40;60.80;;;;;;5086643;27;43379;-75
2023/03/29 06:29:19;;;;;;;1.10;1.10;;;17.40;61.10;;;;;;5090385;27;43510;-77
2023/03/29 06:31:49;;;;;;;1.27;1.27;;;17.40;61.10;;;;;;5090908;27;44009;-78
2023/03/29 06:34:37;;;;;;;1.30;1.30;;;17.40;61.20;;;;;;5101599;27;43654;-76
2023/03/29 06:37:27;;;;;;;1.20;1.20;;;17.40;61.20;;;;;;5081845;27;44607;-77
2023/03/29 06:40:12;;;;;;;1.20;1.20;;;17.40;61.10;;;;;;5089053;27;44054;-77
2023/03/29 06:42:45;;;;;;;1.50;1.50;;;17.50;60.90;;;;;;5086149;27;43488;-76
2023/03/29 06:45:31;;;;;;;1.30;1.30;;;17.50;60.50;;;;;;5082459;27;43901;-75
2023/03/29 06:48:03;;;;;;;1.50;1.50;;;17.60;60.60;;;;;;5078674;27;43484;-77
2023/03/29 06:50:31;;;;;;;1.17;1.17;;;17.50;60.80;;;;;;5087840;27;43419;-75
2023/03/29 06:53:15;;;;;;;1.30;1.30;;;17.50;60.80;;;;;;5078727;27;43461;-73
2023/03/29 06:55:49;;;;;;;1.40;1.40;;;17.50;60.80;;;;;;5090151;27;45924;-77
2023/03/29 06:58:40;;;;;;;1.20;1.20;;;17.50;60.60;;;;;;5089308;27;45151;-77
2023/03/29 07:01:25;;;;;;;1.20;1.20;;;17.50;60.90;;;;;;5085922;27;43446;-76
2023/03/29 07:04:03;;;;;;;1.40;1.40;;;17.50;61.10;;;;;;5081136;27;44035;-77
2023/03/29 07:06:38;;;;;;;1.30;1.30;;;17.40;61.00;;;;;;5078087;27;44911;-76
2023/03/29 07:09:07;;;;;;;1.30;1.30;;;17.40;61.10;;;;;;5079214;27;44599;-75
2023/03/29 07:12:01;;;;;;;1.23;1.23;;;17.40;61.00;;;;;;5092786;27;43956;-77
2023/03/29 07:14:29;;;;;;;1.20;1.20;;;17.40;61.80;;;;;;5086127;27;43502;-77
2023/03/29 07:16:58;;;;;;;1.20;1.20;;;17.40;61.20;;;;;;5089877;27;44987;-74
2023/03/29 07:19:34;;;;;;;1.40;1.40;;;17.40;61.30;;;;;;5088523;27;44699;-75
2023/03/29 07:22:09;;;;;;;1.30;1.30;;;17.40;61.40;;;;;;5087964;27;43434;-77
2023/03/29 07:24:46;;;;;;;1.30;1.30;;;17.40;61.30;;;;;;5089998;27;43497;-77
2023/03/29 07:27:14;;;;;;;1.60;1.60;;;17.40;61.10;;;;;;5089503;27;45766;-78
2023/03/29 07:29:42;;;;;;;1.40;1.40;;;17.60;60.90;;;;;;5100017;27;43494;-77
2023/03/29 07:32:10;;;;;;;1.40;1.40;;;17.60;60.50;;;;;;5085527;27;43439;-78
2023/03/29 07:34:43;;;;;;;1.40;1.40;;;17.70;60.40;;;;;;5093496;27;44054;-75
2023/03/29 07:37:20;;;;;;;1.40;1.40;;;17.60;60.50;;;;;;5089930;27;43858;-76
2023/03/29 07:39:48;;;;;;;1.30;1.30;;;17.60;60.60;;;;;;5088852;27;43893;-78
2023/03/29 07:42:31;;;;;;;1.40;1.40;;;17.60;60.60;;;;;;5086491;27;43713;-77
2023/03/29 07:44:59;;;;;;;1.10;1.10;;;17.60;60.70;;;;;;5085493;27;43489;-77
2023/03/29 07:47:33;;;;;;;1.40;1.40;;;17.50;60.80;;;;;;5079689;27;43915;-75
2023/03/29 07:50:03;;;;;;;1.00;1.00;;;17.50;60.90;;;;;;5076435;27;44668;-76
2023/03/29 07:52:31;;;;;;;1.40;1.40;;;17.50;61.10;;;;;;5087619;27;43992;-76
2023/03/29 07:55:00;;;;;;;1.40;1.40;;;17.40;61.10;;;;;;5081901;28;43476;-75
2023/03/29 07:57:54;;;;;;;1.30;1.30;;;17.50;61.10;;;;;;5089216;27;43773;-72
2023/03/29 08:00:23;;;;;;;1.30;1.30;;;17.50;61.20;;;;;;5080099;27;44636;-78
2023/03/29 08:03:12;;;;;;;1.30;1.30;;;17.40;61.30;;;;;;5095553;27;43395;-76
2023/03/29 08:05:42;;;;;;;1.10;1.10;;;17.40;61.30;;;;;;5088698;27;43477;-76
2023/03/29 08:08:13;;;;;;;1.40;1.40;;;17.40;61.40;;;;;;5089125;27;46091;-76
2023/03/29 08:10:55;;;;;;;1.27;1.27;;;17.40;61.50;;;;;;5086546;27;43505;-75
2023/03/29 08:13:57;;;;;;;1.20;1.20;;;17.50;61.20;;;;;;5063773;27;43489;-75
2023/03/29 08:16:26;;;;;;;1.30;1.30;;;17.50;60.90;;;;;;5098825;27;43376;-76
2023/03/29 08:19:20;;;;;;;1.23;1.23;;;17.50;60.90;;;;;;5093929;27;44678;-76
2023/03/29 08:22:09;;;;;;;1.10;1.10;;;17.50;61.10;;;;;;5088368;27;45039;-75
2023/03/29 08:24:56;;;;;;;1.40;1.40;;;17.50;61.20;;;;;;5096673;27;44132;-74
2023/03/29 08:27:28;;;;;;;1.10;1.10;;;17.50;61.10;;;;;;5088708;27;43446;-78
2023/03/29 08:29:56;;;;;;;1.30;1.30;;;17.50;61.90;;;;;;5071102;27;43915;-76
2023/03/29 08:32:25;;;;;;;1.10;1.10;;;17.50;61.30;;;;;;5079734;27;44375;-76
2023/03/29 08:34:53;;;;;;;1.33;1.33;;;17.40;61.20;;;;;;5088208;27;43412;-77
2023/03/29 08:37:27;;;;;;;1.10;1.10;;;17.40;61.40;;;;;;5089095;27;43387;-75
2023/03/29 08:39:57;;;;;;;1.20;1.20;;;17.40;61.40;;;;;;5088026;27;45563;-75
2023/03/29 08:42:56;;;;;;;1.33;1.33;;;17.40;61.40;;;;;;5101449;27;43427;-74
2023/03/29 08:45:34;;;;;;;1.10;1.10;;;17.50;61.20;;;;;;5077602;27;43420;-77
2023/03/29 08:48:08;;;;;;;1.17;1.17;;;17.60;61.00;;;;;;5088529;27;43487;-76
2023/03/29 08:50:38;;;;;;;1.20;1.20;;;17.60;61.00;;;;;;5082096;27;44912;-77
2023/03/29 08:53:08;;;;;;;1.20;1.20;;;17.50;61.10;;;;;;5080432;27;44421;-76
2023/03/29 08:55:56;;;;;;;1.30;1.30;;;17.50;61.20;;;;;;5089794;27;43931;-75
2023/03/29 08:58:44;;;;;;;1.10;1.10;;;17.50;61.10;;;;;;5103941;27;44279;-76
2023/03/29 09:01:12;;;;;;;1.23;1.23;;;17.50;61.20;;;;;;5083399;27;44731;-76
2023/03/29 09:03:50;;;;;;;1.30;1.30;;;17.50;61.30;;;;;;5083486;27;43854;-76
2023/03/29 09:06:30;;;;;;;1.10;1.10;;;17.50;61.40;;;;;;5082765;27;43857;-76
2023/03/29 09:09:14;;;;;;;1.30;1.30;;;17.40;61.40;;;;;;5081843;27;43574;-76
2023/03/29 09:11:50;;;;;;;1.10;1.10;;;17.40;61.50;;;;;;5086719;27;45613;-75
2023/03/29 09:14:35;;;;;;;1.13;1.13;;;17.40;61.40;;;;;;5081037;27;43395;-77
2023/03/29 09:17:07;;;;;;;1.20;1.20;;;17.40;61.50;;;;;;5088219;27;43428;-76
2023/03/29 09:19:39;;;;;;;1.10;1.10;;;17.40;61.60;;;;;;5083295;27;43456;-76
2023/03/29 09:22:12;;;;;;;1.30;1.30;;;17.40;61.60;;;;;;5083413;27;45564;-77
2023/03/29 09:24:47;;;;;;;1.10;1.10;;;17.40;61.70;;;;;;5085814;27;45158;-76
2023/03/29 09:27:20;;;;;;;1.40;1.40;;;17.40;61.70;;;;;;5083284;27;43414;-78
2023/03/29 09:30:03;;;;;;;1.43;1.43;;;17.40;61.60;;;;;;5075337;27;43460;-75
2023/03/29 09:32:50;;;;;;;1.33;1.33;;;17.50;61.30;;;;;;5087209;27;43902;-77
2023/03/29 09:35:23;;;;;;;1.27;1.27;;;17.60;61.00;;;;;;5086537;27;43391;-75
2023/03/29 09:37:53;;;;;;;1.10;1.10;;;17.60;61.10;;;;;;5084429;28;43407;-78
2023/03/29 09:40:24;;;;;;;1.43;1.40;;;17.50;61.20;;;;;;5086912;27;43522;-77
2023/03/29 09:43:03;;;;;;;1.30;1.30;;;17.50;61.30;;;;;;5079210;27;45862;-77
2023/03/29 09:45:32;;;;;;;1.30;1.30;;;17.50;61.30;;;;;;5087620;27;44846;-77
2023/03/29 09:48:03;;;;;;;1.20;1.20;;;17.50;61.30;;;;;;5084556;27;43953;-77
2023/03/29 09:50:34;;;;;;;1.37;1.37;;;17.50;61.40;;;;;;5087418;27;43401;-77
2023/03/29 09:53:06;;;;;;;1.23;1.23;;;17.50;61.50;;;;;;5079760;27;45962;-77
2023/03/29 09:55:39;;;;;;;1.37;1.37;;;17.40;61.50;;;;;;5076272;27;43703;-74
2023/03/29 09:58:17;;;;;;;1.10;1.10;;;17.40;61.60;;;;;;5085001;27;43433;-77
2023/03/29 10:00:49;;;;;;;1.10;1.10;;;17.40;61.50;;;;;;5083229;27;43401;-77
2023/03/29 10:03:19;;;;;;;1.20;1.20;;;17.50;61.40;;;;;;5087402;27;44965;-77
2023/03/29 10:05:54;;;;;;;1.40;1.40;;;17.50;61.00;;;;;;5086925;27;44678;-77
2023/03/29 10:08:26;;;;;;;1.20;1.20;;;17.60;61.00;;;;;;5085617;27;43410;-77
2023/03/29 10:10:58;;;;;;;1.27;1.27;;;17.50;61.10;;;;;;5076058;27;44107;-73
2023/03/29 10:13:29;;;;;;;1.30;1.30;;;17.50;61.20;;;;;;5100319;27;43612;-75
2023/03/29 10:16:03;;;;;;;1.30;1.30;;;17.50;61.20;;;;;;5103118;27;43439;-77
2023/03/29 10:18:32;;;;;;;1.20;1.20;;;17.50;61.20;;;;;;5086893;27;43449;-75
2023/03/29 10:21:01;;;;;;;1.60;1.50;;;17.50;61.30;;;;;;5106320;27;43396;-76
2023/03/29 10:23:31;;;;;;;1.20;1.20;;;17.50;61.40;;;;;;5094157;27;43977;-75
2023/03/29 10:26:00;;;;;;;1.37;1.37;;;17.50;61.50;;;;;;5099716;27;43524;-76
2023/03/29 10:28:29;;;;;;;1.30;1.30;;;17.50;61.60;;;;;;5097996;27;43380;-76
2023/03/29 10:30:59;;;;;;;1.30;1.30;;;17.40;61.40;;;;;;5087221;27;44048;-76
2023/03/29 10:33:29;;;;;;;1.10;1.10;;;17.40;61.40;;;;;;5101505;27;43927;-76
2023/03/29 10:35:57;;;;;;;1.37;1.37;;;17.40;61.50;;;;;;5097300;27;43484;-78
2023/03/29 10:38:27;;;;;;;1.20;1.20;;;17.40;61.60;;;;;;5091074;27;43390;-76
2023/03/29 10:40:55;;;;;;;1.30;1.30;;;17.40;61.60;;;;;;5090600;27;43558;-71
2023/03/29 10:43:28;;;;;;;1.20;1.20;;;17.40;61.70;;;;;;5103674;27;43933;-78
2023/03/29 10:45:57;;;;;;;1.30;1.30;;;17.40;61.70;;;;;;5089366;27;44613;-77
2023/03/29 10:48:27;;;;;;;1.27;1.27;;;17.50;61.50;;;;;;5103529;27;43394;-75
2023/03/29 10:50:58;;;;;;;1.20;1.20;;;17.50;61.10;;;;;;5102779;27;43463;-75
2023/03/29 10:53:27;;;;;;;1.40;1.40;;;17.60;60.90;;;;;;5103806;27;43908;-77
2023/03/29 10:55:59;;;;;;;1.20;1.20;;;17.60;61.00;;;;;;5074026;28;45083;-71
2023/03/29 10:58:33;;;;;;;1.20;1.20;;;17.60;61.10;;;;;;5102741;27;43434;-75
2023/03/29 11:01:01;;;;;;;1.20;1.20;;;17.60;61.20;;;;;;5103305;27;43428;-76
2023/03/29 11:03:38;;;;;;;1.40;1.40;;;17.60;61.20;;;;;;5104581;27;43837;-75
2023/03/29 11:06:11;;;;;;;1.10;1.10;;;17.60;61.20;;;;;;5080001;27;44704;-75
2023/03/29 11:08:52;;;;;;;1.20;1.20;;;17.50;61.40;;;;;;5090077;27;43881;-77
2023/03/29 11:11:43;;;;;;;1.40;1.40;;;17.50;61.50;;;;;;5102547;27;43386;-77
2023/03/29 11:14:17;;;;;;;1.10;1.10;;;17.50;61.60;;;;;;5081297;27;45974;-75
2023/03/29 11:16:46;;;;;;;1.30;1.30;;;17.40;61.60;;;;;;5096984;27;44100;-76
2023/03/29 11:19:25;;;;;;;1.30;1.30;;;17.40;61.50;;;;;;5100972;27;44207;-77
2023/03/29 11:21:55;;;;;;;1.40;1.40;;;17.50;61.70;;;;;;5085931;27;43511;-77
2023/03/29 11:24:39;;;;;;;1.00;1.00;;;17.40;61.60;;;;;;5088749;27;44959;-76
2023/03/29 11:27:12;;;;;;;1.13;1.13;;;17.40;61.70;;;;;;5103971;27;43514;-75
2023/03/29 11:29:47;;;;;;;1.20;1.20;;;17.40;61.80;;;;;;5084184;28;43490;-78
2023/03/29 11:32:18;;;;;;;1.10;1.10;;;17.40;61.80;;;;;;5095066;27;43403;-76
2023/03/29 11:34:52;;;;;;;1.30;1.30;;;17.50;61.70;;;;;;5088932;27;43666;-75
2023/03/29 11:37:23;;;;;;;1.20;1.20;;;17.60;61.40;;;;;;5102351;27;43526;-76
2023/03/29 11:39:55;;;;;;;1.27;1.27;;;17.60;61.00;;;;;;5103042;27;43428;-77
2023/03/29 11:42:25;;;;;;;1.30;1.30;;;17.60;61.00;;;;;;5103528;27;43434;-77
2023/03/29 11:44:55;;;;;;;1.30;1.30;;;17.60;61.10;;;;;;5085325;27;46046;-75
2023/03/29 11:47:27;;;;;;;1.20;1.20;;;17.60;61.30;;;;;;5082864;27;45201;-77
2023/03/29 11:49:56;;;;;;;1.20;1.20;;;17.60;61.30;;;;;;5085356;27;43467;-74
2023/03/29 11:52:25;;;;;;;1.17;1.17;;;17.60;61.40;;;;;;5106056;27;44079;-77
2023/03/29 11:54:55;;;;;;;1.20;1.20;;;17.50;61.50;;;;;;5105015;27;43912;-78
2023/03/29 11:57:25;;;;;;;1.20;1.20;;;17.50;61.60;;;;;;5085276;28;44519;-76
2023/03/29 11:59:56;;;;;;;1.10;1.10;;;17.40;61.60;;;;;;5097266;27;43436;-77
2023/03/29 12:02:27;;;;;;;1.20;1.20;;;17.40;61.70;;;;;;5098813;27;43426;-78
2023/03/29 12:04:57;;;;;;;1.20;1.20;;;17.40;61.70;;;;;;5103452;27;43600;-73
2023/03/29 12:07:27;;;;;;;1.10;1.10;;;17.40;61.70;;;;;;5096155;27;43830;-75
2023/03/29 12:09:58;;;;;;;1.17;1.17;;;17.40;61.80;;;;;;5086944;27;43378;-72
2023/03/29 12:12:27;;;;;;;1.30;1.30;;;17.40;61.80;;;;;;5100355;27;44058;-76
2023/03/29 12:15:00;;;;;;;1.10;1.10;;;17.40;61.90;;;;;;5105638;27;43852;-74
2023/03/29 12:17:30;;;;;;;1.10;1.10;;;17.40;62.00;;;;;;5077082;27;44787;-76
2023/03/29 12:20:05;;;;;;;1.10;1.10;;;17.40;62.00;;;;;;5091582;27;43430;-76
2023/03/29 12:22:37;;;;;;;1.10;1.10;;;17.40;62.00;;;;;;5079685;27;43443;-76
2023/03/29 12:25:06;;;;;;;1.10;1.10;;;17.30;62.00;;;;;;5102207;27;43922;-76
2023/03/29 12:27:39;;;;;;;1.40;1.40;;;17.30;62.00;;;;;;5095955;27;43460;-77
2023/03/29 12:30:30;;;;;;;1.10;1.10;;;17.30;62.10;;;;;;5081799;27;43973;-76
2023/03/29 12:33:08;;;;;;;1.10;1.10;;;17.30;62.10;;;;;;5105359;27;44048;-76
2023/03/29 12:36:03;;;;;;;1.30;1.30;;;17.40;62.30;;;;;;5084943;27;43704;-77
2023/03/29 12:39:13;;;;;;;1.10;1.10;;;17.30;62.20;;;;;;5069321;27;44037;-77
2023/03/29 12:42:07;;;;;;;1.27;1.27;;;17.40;62.20;;;;;;5100172;27;43415;-77
2023/03/29 12:44:59;;;;;;;1.20;1.20;;;17.40;61.80;;;;;;5091719;27;43895;-76
2023/03/29 12:47:36;;;;;;;1.30;1.30;;;17.60;61.50;;;;;;5083864;28;44103;-75
2023/03/29 12:50:05;;;;;;;1.40;1.40;;;17.80;61.20;;;;;;5080622;27;44359;-75
2023/03/29 12:52:34;;;;;;;1.20;1.20;;;17.90;60.80;;;;;;5103016;27;43511;-75
2023/03/29 12:55:04;;;;;;;1.20;1.20;;;18.10;60.40;;;;;;5085334;27;43460;-76
2023/03/29 12:57:39;;;;;;;1.10;1.10;;;18.20;60.00;;;;;;5100833;27;44095;-76
2023/03/29 13:00:29;;;;;;;1.10;1.10;;;18.30;59.70;;;;;;5097295;27;43465;-75
2023/03/29 13:03:06;;;;;;;1.00;1.00;;;18.40;59.30;;;;;;5088021;27;43416;-73
2023/03/29 13:05:35;;;;;;;1.07;1.07;;;18.50;59.10;;;;;;5105198;27;43470;-76
2023/03/29 13:08:19;;;;;;;1.30;1.30;;;18.60;58.90;;;;;;5087610;27;45880;-76
2023/03/29 13:10:52;;;;;;;1.10;1.10;;;18.60;58.90;;;;;;5087379;27;44904;-76
2023/03/29 13:13:23;;;;;;;1.20;1.20;;;18.60;59.00;;;;;;5083056;27;43376;-74
2023/03/29 13:15:51;;;;;;;1.10;1.10;;;18.40;59.10;;;;;;5075641;27;43539;-77
2023/03/29 13:18:31;;;;;;;1.13;1.13;;;18.30;59.40;;;;;;5093648;27;43809;-74
2023/03/29 13:21:02;;;;;;;1.10;1.10;;;18.10;60.00;;;;;;5082778;27;45094;-76